Terminal Aerodrome Forecast
Issued by NWS

Home | Current Version | Previous Version | Text Only | Print | Product List | Glossary On
Versions: 1 2 3 4 5 6 7 8 9 10 11 12 13 14 15 16 17
000
FTUS43 KGRR 271140
TAFMKG
TAF
KMKG 271140Z 2712/2812 19010KT P6SM SCT200
     FM271700 18009KT 6SM HZ VCTS OVC045CB
     FM272200 18008KT P6SM -SHRA VCTS OVC050CB=

USA.gov is the U.S. government's official web portal to all federal, state and local government web resources and services.